createdAt,value
2019-04-19T00:01:22.620Z,100.00
2019-04-19T00:03:49.586Z,100.00
2019-04-19T00:06:40.807Z,100.00
2019-04-19T00:09:21.142Z,100.00
2019-04-19T00:11:44.009Z,100.00
2019-04-19T00:14:06.504Z,100.00
2019-04-19T00:16:36.318Z,100.00
2019-04-19T00:19:25.172Z,100.00
2019-04-19T00:21:57.770Z,100.00
2019-04-19T00:24:01.762Z,100.00
2019-04-19T00:26:29.555Z,100.00
2019-04-19T00:29:01.117Z,100.00
2019-04-19T00:31:33.889Z,100.00
2019-04-19T00:33:55.885Z,100.00
2019-04-19T00:36:23.468Z,100.00
2019-04-19T00:39:05.083Z,100.00
2019-04-19T00:42:04.889Z,100.00
2019-04-19T00:44:39.918Z,100.00
2019-04-19T00:47:19.602Z,100.00
2019-04-19T00:49:25.820Z,100.00
2019-04-19T00:52:04.128Z,100.00
2019-04-19T00:54:23.137Z,100.00
2019-04-19T00:56:54.306Z,100.00
2019-04-19T00:59:15.033Z,100.00
2019-04-19T01:01:41.910Z,100.00
2019-04-19T01:04:13.737Z,100.00
2019-04-19T01:06:44.836Z,100.00
2019-04-19T01:09:19.291Z,100.00
2019-04-19T01:11:52.694Z,100.00
2019-04-19T01:14:18.366Z,100.00
2019-04-19T01:16:51.916Z,100.00
2019-04-19T01:19:08.095Z,100.00
2019-04-19T01:21:30.380Z,100.00
2019-04-19T01:24:00.412Z,100.00
2019-04-19T01:26:30.020Z,100.00
2019-04-19T01:29:01.912Z,100.00
2019-04-19T01:31:26.371Z,100.00
2019-04-19T01:33:52.695Z,100.00
2019-04-19T01:36:28.869Z,100.00
2019-04-19T01:38:59.234Z,100.00
2019-04-19T01:41:33.803Z,100.00
2019-04-19T01:44:06.989Z,100.00
2019-04-19T01:46:51.189Z,100.00
2019-04-19T01:49:25.896Z,100.00
2019-04-19T01:52:07.756Z,100.00
2019-04-19T01:54:39.609Z,100.00
2019-04-19T01:56:56.621Z,100.00
2019-04-19T01:59:18.518Z,100.00
2019-04-19T02:01:49.919Z,100.00
2019-04-19T02:04:20.807Z,100.00
2019-04-19T02:06:46.707Z,100.00
2019-04-19T02:09:24.538Z,100.00
2019-04-19T02:11:56.541Z,100.00
2019-04-19T02:14:21.164Z,100.00
2019-04-19T02:16:51.815Z,100.00
2019-04-19T02:19:19.510Z,100.00
2019-04-19T02:21:46.000Z,100.00
2019-04-19T02:24:12.629Z,100.00
2019-04-19T02:26:50.042Z,100.00
2019-04-19T02:29:14.631Z,100.00
2019-04-19T02:32:04.813Z,100.00
2019-04-19T02:34:37.105Z,100.00
2019-04-19T02:37:08.347Z,100.00
2019-04-19T02:39:38.463Z,100.00
2019-04-19T02:42:12.166Z,100.00
2019-04-19T02:44:38.285Z,100.00
2019-04-19T02:49:37.160Z,100.00
2019-04-19T02:51:57.700Z,100.00
2019-04-19T02:54:35.952Z,100.00
2019-04-19T02:57:37.032Z,100.00
2019-04-19T03:00:03.645Z,100.00
2019-04-19T03:07:09.146Z,100.00
2019-04-19T03:09:40.739Z,100.00
2019-04-19T03:12:23.670Z,100.00
2019-04-19T03:14:50.820Z,100.00
2019-04-19T03:17:19.080Z,100.00
2019-04-19T03:19:52.614Z,100.00
2019-04-19T03:22:19.687Z,100.00
2019-04-19T03:24:47.762Z,100.00
2019-04-19T03:27:06.659Z,100.00
2019-04-19T03:29:31.945Z,100.00
2019-04-19T03:32:34.816Z,100.00
2019-04-19T03:35:01.145Z,100.00
2019-04-19T03:37:06.329Z,100.00
2019-04-19T03:39:47.325Z,100.00
2019-04-19T03:42:18.678Z,100.00
2019-04-19T03:44:41.337Z,100.00
2019-04-19T03:47:16.025Z,100.00
2019-04-19T03:49:53.766Z,100.00
2019-04-19T03:52:15.529Z,100.00
2019-04-19T03:54:37.123Z,100.00
2019-04-19T03:57:04.739Z,100.00
2019-04-19T03:59:20.311Z,100.00
2019-04-19T04:01:52.783Z,100.00
2019-04-19T04:04:20.518Z,100.00
2019-04-19T04:06:45.944Z,100.00
2019-04-19T04:09:18.929Z,100.00
2019-04-19T04:12:00.236Z,100.00
2019-04-19T04:14:49.565Z,100.00
2019-04-19T04:17:05.964Z,100.00
2019-04-19T04:19:33.577Z,100.00
2019-04-19T04:22:00.743Z,100.00
2019-04-19T04:24:34.539Z,100.00
2019-04-19T04:27:06.058Z,100.00
2019-04-19T04:29:32.801Z,100.00
2019-04-19T04:32:05.322Z,100.00
2019-04-19T04:34:35.272Z,100.00
2019-04-19T04:37:06.375Z,100.00
2019-04-19T04:39:19.861Z,100.00
2019-04-19T04:41:47.581Z,100.00
2019-04-19T04:44:33.311Z,100.00
2019-04-19T04:47:24.316Z,100.00
2019-04-19T04:50:14.256Z,100.00
2019-04-19T04:52:40.353Z,100.00
2019-04-19T04:55:13.590Z,100.00
2019-04-19T04:57:50.419Z,100.00
2019-04-19T05:00:11.754Z,100.00
2019-04-19T05:02:51.574Z,100.00
2019-04-19T05:05:27.857Z,100.00
2019-04-19T05:07:59.822Z,100.00
2019-04-19T05:10:26.591Z,100.00
2019-04-19T05:13:12.412Z,100.00
2019-04-19T05:15:26.387Z,100.00
2019-04-19T05:17:58.589Z,100.00
2019-04-19T05:20:17.150Z,100.00
2019-04-19T05:22:50.307Z,100.00
2019-04-19T05:25:25.635Z,100.00
2019-04-19T05:27:48.472Z,100.00
2019-04-19T05:29:57.584Z,100.00
2019-04-19T05:32:30.964Z,100.00
2019-04-19T05:35:08.373Z,100.00
2019-04-19T05:37:54.797Z,100.00
2019-04-19T05:40:19.965Z,100.00
2019-04-19T05:43:01.312Z,100.00
2019-04-19T05:47:55.915Z,100.00
2019-04-19T05:50:49.301Z,100.00
2019-04-19T05:52:55.252Z,100.00
2019-04-19T05:55:11.613Z,100.00
2019-04-19T05:57:54.119Z,100.00
2019-04-19T06:00:21.720Z,100.00
2019-04-19T06:02:53.433Z,100.00
2019-04-19T06:05:25.334Z,100.00
2019-04-19T06:07:49.277Z,100.00
2019-04-19T06:10:09.690Z,100.00
2019-04-19T06:12:38.673Z,100.00
2019-04-19T06:15:24.830Z,100.00
2019-04-19T06:18:25.698Z,100.00
2019-04-19T06:21:07.766Z,100.00
2019-04-19T06:23:34.662Z,100.00
2019-04-19T06:26:21.393Z,100.00
2019-04-19T06:28:30.628Z,100.00
2019-04-19T06:30:54.734Z,100.00
2019-04-19T06:33:27.206Z,100.00
2019-04-19T06:35:43.695Z,100.00
2019-04-19T06:38:03.469Z,100.00
2019-04-19T06:40:53.507Z,100.00
2019-04-19T06:43:47.564Z,100.00
2019-04-19T06:46:33.463Z,100.00
2019-04-19T06:49:12.754Z,100.00
2019-04-19T06:52:01.348Z,100.00
2019-04-19T06:58:04.852Z,100.00
2019-04-19T07:03:19.494Z,100.00
2019-04-19T07:06:14.343Z,100.00
2019-04-19T07:09:13.600Z,100.00
2019-04-19T07:11:33.228Z,100.00
2019-04-19T07:13:58.395Z,100.00
2019-04-19T07:16:55.749Z,100.00
2019-04-19T07:19:08.694Z,100.00
2019-04-19T07:21:42.549Z,100.00
2019-04-19T07:24:29.358Z,100.00
2019-04-19T07:26:56.355Z,100.00
2019-04-19T07:29:08.411Z,100.00
2019-04-19T07:31:40.288Z,100.00
2019-04-19T07:34:38.172Z,100.00
2019-04-19T07:37:22.051Z,100.00
2019-04-19T07:40:05.723Z,100.00
2019-04-19T07:42:36.255Z,100.00
2019-04-19T07:45:04.929Z,100.00
2019-04-19T07:48:12.206Z,100.00
2019-04-19T07:50:45.417Z,100.00
2019-04-19T07:53:10.291Z,100.00
2019-04-19T07:56:00.791Z,100.00
2019-04-19T07:58:44.579Z,100.00
2019-04-19T08:01:17.351Z,100.00
2019-04-19T08:04:02.188Z,100.00
2019-04-19T08:06:37.766Z,100.00
2019-04-19T08:11:58.168Z,89.72
2019-04-19T08:14:08.082Z,85.25
2019-04-19T08:17:22.925Z,87.65
2019-04-19T08:29:40.703Z,71.84
2019-04-19T08:32:15.236Z,72.58
2019-04-19T08:35:02.809Z,70.55
2019-04-19T08:37:34.001Z,72.40
2019-04-19T08:40:29.249Z,70.47
2019-04-19T08:42:54.098Z,70.76
2019-04-19T08:45:18.339Z,67.69
2019-04-19T08:48:28.041Z,66.70
2019-04-19T08:57:30.769Z,64.12
2019-04-19T09:00:40.015Z,62.40
2019-04-19T09:03:00.368Z,61.76
2019-04-19T09:06:04.194Z,58.65
2019-04-19T09:08:28.495Z,57.23
2019-04-19T09:11:02.693Z,56.43
2019-04-19T09:13:35.379Z,58.11
2019-04-19T09:16:25.582Z,59.23
2019-04-19T09:19:12.268Z,56.32
2019-04-19T09:21:30.770Z,55.21
2019-04-19T09:24:05.706Z,54.58
2019-04-19T09:26:49.702Z,55.22
2019-04-19T09:29:41.511Z,55.32
2019-04-19T09:32:20.563Z,54.73
2019-04-19T09:35:01.812Z,57.16
2019-04-19T09:37:45.059Z,57.37
2019-04-19T09:40:16.147Z,57.13
2019-04-19T09:42:53.816Z,55.75
2019-04-19T09:45:25.495Z,54.59
2019-04-19T09:48:31.582Z,56.22
2019-04-19T09:51:07.494Z,55.15
2019-04-19T09:54:09.407Z,52.28
2019-04-19T09:56:34.224Z,51.31
2019-04-19T09:59:09.792Z,51.09
2019-04-19T10:01:48.541Z,51.86
2019-04-19T10:04:25.130Z,51.87
2019-04-19T10:06:57.146Z,51.10
2019-04-19T10:09:35.166Z,52.21
2019-04-19T10:12:09.394Z,50.64
2019-04-19T10:14:48.912Z,50.91
2019-04-19T10:17:52.348Z,50.37
2019-04-19T10:20:33.347Z,50.32
2019-04-19T10:26:12.276Z,48.41
2019-04-19T10:28:58.574Z,48.39
2019-04-19T10:31:56.654Z,48.06
2019-04-19T10:34:34.445Z,48.07
2019-04-19T10:37:21.853Z,48.89
2019-04-19T10:39:57.561Z,47.52
2019-04-19T10:42:27.300Z,47.38
2019-04-19T10:45:07.966Z,47.45
2019-04-19T10:47:35.789Z,47.72
2019-04-19T10:52:58.606Z,47.46
2019-04-19T10:55:36.675Z,48.46
2019-04-19T10:58:05.388Z,45.67
2019-04-19T11:00:59.590Z,43.93
2019-04-19T11:03:54.901Z,44.66
2019-04-19T11:06:41.715Z,44.09
2019-04-19T11:09:22.775Z,44.46
2019-04-19T11:12:01.790Z,43.51
2019-04-19T11:14:37.175Z,45.03
2019-04-19T11:17:19.887Z,44.99
2019-04-19T11:20:04.698Z,44.57
2019-04-19T11:22:42.102Z,44.10
2019-04-19T11:25:10.262Z,43.96
2019-04-19T11:27:52.822Z,42.93
2019-04-19T11:30:56.818Z,43.32
2019-04-19T11:36:47.650Z,43.83
2019-04-19T11:39:14.899Z,43.81
2019-04-19T11:41:41.651Z,43.55
2019-04-19T11:44:19.041Z,44.10
2019-04-19T11:46:42.288Z,44.20
2019-04-19T11:49:23.783Z,44.21
2019-04-19T11:51:41.828Z,42.76
2019-04-19T11:54:10.361Z,42.87
2019-04-19T11:56:50.703Z,40.56
2019-04-19T11:59:45.860Z,42.40
2019-04-19T12:02:34.209Z,42.80
2019-04-19T12:05:12.912Z,42.14
2019-04-19T12:07:34.728Z,41.91
2019-04-19T12:10:03.201Z,42.80
2019-04-19T12:12:32.900Z,42.55
2019-04-19T12:15:02.330Z,42.20
2019-04-19T12:17:31.343Z,42.04
2019-04-19T12:20:02.841Z,41.18
2019-04-19T12:22:27.950Z,40.93
2019-04-19T12:24:55.332Z,40.33
2019-04-19T12:27:23.555Z,39.78
2019-04-19T12:29:53.330Z,39.25
2019-04-19T12:32:21.096Z,39.52
2019-04-19T12:34:48.749Z,38.34
2019-04-19T12:37:15.557Z,36.63
2019-04-19T12:39:43.225Z,36.87
2019-04-19T12:42:28.207Z,37.90
2019-04-19T12:44:55.075Z,37.73
2019-04-19T12:47:22.631Z,38.23
2019-04-19T12:49:56.051Z,38.40
2019-04-19T12:52:18.193Z,37.85
2019-04-19T12:54:45.881Z,37.06
2019-04-19T12:57:14.050Z,36.98
2019-04-19T12:59:42.160Z,36.58
2019-04-19T13:02:17.947Z,37.08
2019-04-19T13:05:02.939Z,36.91
2019-04-19T13:07:31.103Z,36.18
2019-04-19T13:09:59.208Z,35.68
2019-04-19T13:12:26.591Z,36.02
2019-04-19T13:14:53.529Z,34.92
2019-04-19T13:17:20.303Z,35.67
2019-04-19T13:19:47.586Z,35.22
2019-04-19T13:22:16.496Z,36.11
2019-04-19T13:24:44.598Z,37.25
2019-04-19T13:27:11.640Z,37.47
2019-04-19T13:29:38.474Z,37.15
2019-04-19T13:32:06.373Z,37.48
2019-04-19T13:34:33.544Z,36.79
2019-04-19T13:37:27.201Z,35.99
2019-04-19T13:40:03.981Z,35.86
2019-04-19T13:42:35.096Z,35.89
2019-04-19T13:45:13.966Z,35.32
2019-04-19T13:47:31.795Z,34.88
2019-04-19T13:49:58.602Z,35.30
2019-04-19T13:52:26.339Z,35.47
2019-04-19T13:54:53.121Z,35.11
2019-04-19T13:57:19.826Z,35.75
2019-04-19T13:59:54.561Z,35.64
2019-04-19T14:02:19.343Z,36.43
2019-04-19T14:04:45.643Z,35.98
2019-04-19T14:07:12.630Z,36.78
2019-04-19T14:09:39.608Z,35.46
2019-04-19T14:12:07.139Z,34.99
2019-04-19T14:14:34.931Z,35.09
2019-04-19T14:17:01.928Z,35.04
2019-04-19T14:19:29.245Z,34.37
2019-04-19T14:21:57.169Z,35.01
2019-04-19T14:24:25.106Z,35.59
2019-04-19T14:26:55.823Z,35.39
2019-04-19T14:29:21.383Z,34.43
2019-04-19T14:31:48.573Z,34.78
2019-04-19T14:34:15.414Z,34.07
2019-04-19T14:36:42.353Z,34.11
2019-04-19T14:39:09.111Z,34.19
2019-04-19T14:41:38.038Z,34.02
2019-04-19T14:44:04.961Z,34.60
2019-04-19T14:46:32.433Z,34.49
2019-04-19T14:49:00.628Z,33.99
2019-04-19T14:51:29.180Z,34.59
2019-04-19T14:53:56.200Z,34.79
2019-04-19T14:56:23.860Z,34.86
2019-04-19T14:58:50.800Z,35.58
2019-04-19T15:01:46.868Z,35.21
2019-04-19T15:04:28.884Z,35.24
2019-04-19T15:06:55.693Z,34.94
2019-04-19T15:09:23.571Z,34.71
2019-04-19T15:11:50.441Z,35.49
2019-04-19T15:14:18.577Z,34.69
2019-04-19T15:16:45.493Z,35.77
2019-04-19T15:19:12.277Z,35.70
2019-04-19T15:21:40.478Z,35.99
2019-04-19T15:24:08.618Z,35.53
2019-04-19T15:26:36.583Z,35.42
2019-04-19T15:29:04.916Z,35.72
2019-04-19T15:31:32.291Z,35.65
2019-04-19T15:33:59.166Z,36.13
2019-04-19T15:36:26.048Z,36.36
2019-04-19T15:38:53.361Z,36.46
2019-04-19T15:41:20.103Z,36.97
2019-04-19T15:43:48.063Z,37.16
2019-04-19T15:46:15.635Z,36.43
2019-04-19T15:48:46.880Z,36.59
2019-04-19T15:51:20.177Z,36.75
2019-04-19T15:53:42.309Z,36.98
2019-04-19T15:56:09.401Z,38.30
2019-04-19T15:58:36.422Z,37.93
2019-04-19T16:01:06.112Z,37.66
2019-04-19T16:03:45.874Z,37.93
2019-04-19T16:06:22.469Z,38.34
2019-04-19T16:09:05.403Z,38.30
2019-04-19T16:12:05.961Z,38.66
2019-04-19T16:14:32.985Z,38.68
2019-04-19T16:17:00.934Z,38.80
2019-04-19T16:19:28.277Z,39.93
2019-04-19T16:21:58.375Z,39.98
2019-04-19T16:24:25.082Z,41.06
2019-04-19T16:26:53.139Z,41.66
2019-04-19T16:29:27.783Z,41.94
2019-04-19T16:31:50.910Z,42.25
2019-04-19T16:34:18.276Z,42.82
2019-04-19T16:36:45.376Z,43.20
2019-04-19T16:39:12.471Z,43.66
2019-04-19T16:41:41.144Z,43.73
2019-04-19T16:44:07.947Z,43.81
2019-04-19T16:46:35.558Z,43.97
2019-04-19T16:49:02.732Z,44.42
2019-04-19T16:51:37.685Z,44.40
2019-04-19T16:54:00.289Z,45.25
2019-04-19T16:56:27.825Z,45.53
2019-04-19T16:58:55.134Z,45.88
2019-04-19T17:01:22.915Z,46.18
2019-04-19T17:03:50.017Z,47.01
2019-04-19T17:06:18.291Z,46.73
2019-04-19T17:08:46.142Z,47.25
2019-04-19T17:11:13.584Z,48.13
2019-04-19T17:13:40.679Z,48.28
2019-04-19T17:16:25.343Z,49.27
2019-04-19T17:19:15.208Z,50.10
2019-04-19T17:21:50.619Z,50.47
2019-04-19T17:24:11.374Z,51.30
2019-04-19T17:26:38.595Z,52.17
2019-04-19T17:29:06.701Z,52.47
2019-04-19T17:31:34.183Z,52.16
2019-04-19T17:34:02.214Z,52.58
2019-04-19T17:36:30.389Z,53.51
2019-04-19T17:38:58.724Z,54.86
2019-04-19T17:41:26.233Z,55.10
2019-04-19T17:43:53.457Z,55.44
2019-04-19T17:46:20.687Z,55.34
2019-04-19T17:48:48.555Z,55.82
2019-04-19T17:51:17.785Z,56.29
2019-04-19T17:53:48.603Z,56.45
2019-04-19T17:56:13.294Z,57.84
2019-04-19T17:58:40.327Z,58.26
2019-04-19T18:01:08.397Z,58.68
2019-04-19T18:03:35.342Z,59.34
2019-04-19T18:06:02.236Z,59.43
2019-04-19T18:08:32.653Z,60.51
2019-04-19T18:11:00.906Z,62.08
2019-04-19T18:13:29.031Z,62.64
2019-04-19T18:15:56.377Z,62.78
2019-04-19T18:18:29.891Z,63.03
2019-04-19T18:20:58.535Z,64.47
2019-04-19T18:23:35.780Z,64.91
2019-04-19T18:25:53.022Z,65.01
2019-04-19T18:28:19.889Z,65.88
2019-04-19T18:30:51.376Z,66.56
2019-04-19T18:33:24.560Z,67.65
2019-04-19T18:35:58.637Z,68.01
2019-04-19T18:38:23.243Z,68.55
2019-04-19T18:40:49.257Z,69.83
2019-04-19T18:43:27.828Z,69.97
2019-04-19T18:45:45.757Z,71.94
2019-04-19T18:48:13.577Z,73.31
2019-04-19T18:50:44.773Z,73.93
2019-04-19T18:53:19.211Z,74.62
2019-04-19T18:55:43.407Z,74.97
2019-04-19T18:58:06.674Z,75.86
2019-04-19T19:00:42.279Z,76.67
2019-04-19T19:03:05.052Z,77.90
2019-04-19T19:05:34.935Z,78.08
2019-04-19T19:08:03.221Z,78.49
2019-04-19T19:10:39.046Z,79.63
2019-04-19T19:12:58.290Z,80.08
2019-04-19T19:15:32.150Z,80.51
2019-04-19T19:17:56.436Z,81.33
2019-04-19T19:20:32.418Z,84.09
2019-04-19T19:23:11.123Z,84.04
2019-04-19T19:25:38.536Z,85.14
2019-04-19T19:27:57.985Z,86.70
2019-04-19T19:30:25.031Z,86.57
2019-04-19T19:32:55.063Z,87.08
2019-04-19T19:35:24.655Z,87.64
2019-04-19T19:37:50.750Z,89.02
2019-04-19T19:40:31.071Z,88.38
2019-04-19T19:43:07.128Z,90.11
2019-04-19T19:45:31.246Z,89.46
2019-04-19T19:48:26.034Z,91.05
2019-04-19T19:51:00.651Z,92.08
2019-04-19T19:53:35.793Z,94.15
2019-04-19T19:56:05.410Z,94.72
2019-04-19T19:58:15.838Z,94.40
2019-04-19T20:00:47.839Z,95.51
2019-04-19T20:03:11.687Z,95.48
2019-04-19T20:05:34.473Z,96.32
2019-04-19T20:07:59.538Z,96.02
2019-04-19T20:10:37.231Z,97.35
2019-04-19T20:12:57.841Z,98.38
2019-04-19T20:15:25.084Z,99.00
2019-04-19T20:17:57.595Z,98.74
2019-04-19T20:20:28.191Z,98.31
2019-04-19T20:22:52.026Z,98.52
2019-04-19T20:25:32.459Z,99.35
2019-04-19T20:27:51.666Z,97.95
2019-04-19T20:30:19.531Z,98.96
2019-04-19T20:32:52.775Z,98.38
2019-04-19T20:35:19.568Z,100.00
2019-04-19T20:37:46.647Z,100.00
2019-04-19T20:40:17.633Z,100.00
2019-04-19T20:43:07.531Z,100.00
2019-04-19T20:45:26.447Z,100.00
2019-04-19T20:47:48.111Z,100.00
2019-04-19T20:50:22.519Z,100.00
2019-04-19T20:52:51.694Z,100.00
2019-04-19T20:55:28.315Z,100.00
2019-04-19T20:58:03.192Z,100.00
2019-04-19T21:00:49.967Z,100.00
2019-04-19T21:03:22.672Z,100.00
2019-04-19T21:05:48.067Z,100.00
2019-04-19T21:08:15.863Z,100.00
2019-04-19T21:10:50.788Z,100.00
2019-04-19T21:13:17.128Z,100.00
2019-04-19T21:15:43.816Z,100.00
2019-04-19T21:18:16.875Z,100.00
2019-04-19T21:20:40.652Z,100.00
2019-04-19T21:23:16.177Z,100.00
2019-04-19T21:25:45.836Z,100.00
2019-04-19T21:28:05.337Z,100.00
2019-04-19T21:30:32.232Z,100.00
2019-04-19T21:33:04.905Z,100.00
2019-04-19T21:35:29.965Z,100.00
2019-04-19T21:37:57.959Z,100.00
2019-04-19T21:40:31.326Z,100.00
2019-04-19T21:42:57.683Z,100.00
2019-04-19T21:45:23.364Z,100.00
2019-04-19T21:47:53.377Z,100.00
2019-04-19T21:50:23.082Z,100.00
2019-04-19T21:52:52.436Z,100.00
2019-04-19T21:55:27.040Z,100.00
2019-04-19T21:57:46.103Z,100.00
2019-04-19T22:00:24.979Z,100.00
2019-04-19T22:02:53.467Z,100.00
2019-04-19T22:05:27.497Z,100.00
2019-04-19T22:07:50.715Z,100.00
2019-04-19T22:10:19.129Z,100.00
2019-04-19T22:12:50.481Z,100.00
2019-04-19T22:15:17.372Z,100.00
2019-04-19T22:17:48.793Z,100.00
2019-04-19T22:20:16.396Z,100.00
2019-04-19T22:22:43.423Z,100.00
2019-04-19T22:25:18.935Z,100.00
2019-04-19T22:27:39.216Z,100.00
2019-04-19T22:30:07.444Z,100.00
2019-04-19T22:32:34.476Z,100.00
2019-04-19T22:35:07.514Z,100.00
2019-04-19T22:37:33.966Z,100.00
2019-04-19T22:40:00.551Z,100.00
2019-04-19T22:42:28.753Z,100.00
2019-04-19T22:44:56.627Z,100.00
2019-04-19T22:47:26.991Z,100.00
2019-04-19T22:49:53.610Z,100.00
2019-04-19T22:52:20.707Z,100.00
2019-04-19T22:54:48.727Z,100.00
2019-04-19T22:57:19.632Z,100.00
2019-04-19T22:59:48.232Z,100.00
2019-04-19T23:02:38.070Z,100.00
2019-04-19T23:05:01.189Z,100.00
2019-04-19T23:07:33.608Z,100.00
2019-04-19T23:09:57.486Z,100.00
2019-04-19T23:12:24.778Z,100.00
2019-04-19T23:14:53.221Z,100.00
2019-04-19T23:17:28.243Z,100.00
2019-04-19T23:19:52.749Z,100.00
2019-04-19T23:22:22.827Z,100.00
2019-04-19T23:24:53.424Z,100.00
2019-04-19T23:27:29.076Z,100.00
2019-04-19T23:29:44.946Z,100.00
2019-04-19T23:32:16.631Z,100.00
2019-04-19T23:34:47.255Z,100.00
2019-04-19T23:37:13.042Z,100.00
2019-04-19T23:39:44.921Z,100.00
2019-04-19T23:42:07.072Z,100.00
2019-04-19T23:44:33.982Z,100.00
2019-04-19T23:47:02.235Z,100.00
2019-04-19T23:49:31.164Z,100.00
2019-04-19T23:51:59.021Z,100.00
2019-04-19T23:54:29.585Z,100.00
2019-04-19T23:57:04.534Z,100.00
2019-04-19T23:59:24.557Z,100.00
